createdAt,value
2016-12-31T00:00:51.948Z,976.79
2016-12-31T00:02:00.653Z,976.73
2016-12-31T00:03:09.355Z,976.82
2016-12-31T00:04:18.054Z,976.83
2016-12-31T00:05:26.752Z,976.82
2016-12-31T00:06:35.457Z,976.83
2016-12-31T00:07:44.159Z,976.94
2016-12-31T00:08:52.863Z,976.87
2016-12-31T00:10:01.565Z,976.86
2016-12-31T00:11:10.267Z,976.85
2016-12-31T00:12:18.968Z,976.83
2016-12-31T00:13:27.676Z,976.83
2016-12-31T00:14:36.380Z,976.83
2016-12-31T00:15:45.083Z,976.86
2016-12-31T00:16:53.783Z,976.88
2016-12-31T00:18:02.485Z,976.81
2016-12-31T00:19:11.192Z,976.8
2016-12-31T00:20:19.890Z,976.72
2016-12-31T00:21:28.588Z,976.73
2016-12-31T00:22:37.290Z,976.67
2016-12-31T00:23:45.990Z,976.63
2016-12-31T00:24:54.692Z,976.63
2016-12-31T00:26:03.394Z,976.61
2016-12-31T00:27:12.097Z,976.57
2016-12-31T00:28:20.794Z,976.55
2016-12-31T00:29:29.492Z,976.55
2016-12-31T00:30:38.190Z,976.48
2016-12-31T00:31:46.893Z,976.44
2016-12-31T00:32:55.596Z,976.52
2016-12-31T00:34:04.301Z,976.48
2016-12-31T00:35:12.999Z,976.44
2016-12-31T00:36:21.697Z,976.44
2016-12-31T00:37:30.399Z,976.39
2016-12-31T00:38:39.097Z,976.38
2016-12-31T00:39:47.795Z,976.43
2016-12-31T00:40:56.494Z,976.46
2016-12-31T00:42:05.224Z,976.38
2016-12-31T00:43:13.924Z,976.39
2016-12-31T00:44:22.627Z,976.39
2016-12-31T00:45:31.326Z,976.48
2016-12-31T00:46:40.032Z,976.5
2016-12-31T00:47:48.735Z,976.5
2016-12-31T00:48:57.435Z,976.47
2016-12-31T00:50:06.140Z,976.47
2016-12-31T00:51:14.840Z,976.44
2016-12-31T00:52:23.537Z,976.41
2016-12-31T00:53:32.262Z,976.37
2016-12-31T00:54:40.962Z,976.34
2016-12-31T00:55:49.662Z,976.35
2016-12-31T00:56:58.365Z,976.35
2016-12-31T00:58:07.070Z,976.28
2016-12-31T00:59:15.769Z,976.33
2016-12-31T01:00:24.467Z,976.28
2016-12-31T01:01:33.181Z,976.23
2016-12-31T01:02:41.878Z,976.22
2016-12-31T01:03:50.926Z,976.16
2016-12-31T01:04:59.631Z,976.15
2016-12-31T01:06:08.358Z,976.11
2016-12-31T01:07:17.055Z,976.13
2016-12-31T01:08:25.755Z,976.11
2016-12-31T01:09:34.455Z,976.07
2016-12-31T01:10:43.189Z,976.02
2016-12-31T01:11:51.889Z,976.07
2016-12-31T01:13:00.609Z,976.04
2016-12-31T01:14:09.308Z,976.04
2016-12-31T01:15:18.010Z,976
2016-12-31T01:16:26.710Z,975.98
2016-12-31T01:17:35.410Z,975.99
2016-12-31T01:18:44.113Z,975.96
2016-12-31T01:19:52.811Z,976
2016-12-31T01:21:01.511Z,976.02
2016-12-31T01:22:10.217Z,976.01
2016-12-31T01:23:18.961Z,975.97
2016-12-31T01:24:27.661Z,975.99
2016-12-31T01:25:36.360Z,975.93
2016-12-31T01:26:45.455Z,975.93
2016-12-31T01:27:54.158Z,975.94
2016-12-31T01:29:02.858Z,975.91
2016-12-31T01:30:11.561Z,975.89
2016-12-31T01:31:20.264Z,975.9
2016-12-31T01:32:28.961Z,975.86
2016-12-31T01:33:37.669Z,975.87
2016-12-31T01:34:46.374Z,975.89
2016-12-31T01:35:55.072Z,975.93
2016-12-31T01:37:03.774Z,975.9
2016-12-31T01:38:12.484Z,975.88
2016-12-31T01:39:21.188Z,975.88
2016-12-31T01:40:29.913Z,975.89
2016-12-31T01:41:38.615Z,975.94
2016-12-31T01:42:47.317Z,975.95
2016-12-31T01:43:56.017Z,975.9
2016-12-31T01:45:04.798Z,975.77
2016-12-31T01:46:13.502Z,975.75
2016-12-31T01:47:22.229Z,975.78
2016-12-31T01:48:30.926Z,975.78
2016-12-31T01:49:39.629Z,975.85
2016-12-31T01:50:48.331Z,975.88
2016-12-31T01:51:57.030Z,975.91
2016-12-31T01:53:05.731Z,975.87
2016-12-31T01:54:14.430Z,975.87
2016-12-31T01:55:23.183Z,975.82
2016-12-31T01:56:31.886Z,975.78
2016-12-31T01:57:40.584Z,975.74
2016-12-31T01:58:49.283Z,975.74
2016-12-31T01:59:57.987Z,975.71
2016-12-31T02:01:06.693Z,975.65
2016-12-31T02:02:15.391Z,975.7
2016-12-31T02:03:24.091Z,975.64
2016-12-31T02:04:32.794Z,975.59
2016-12-31T02:05:41.493Z,975.6
2016-12-31T02:06:50.198Z,975.58
2016-12-31T02:07:58.909Z,975.58
2016-12-31T02:09:07.609Z,975.56
2016-12-31T02:10:16.309Z,975.55
2016-12-31T02:11:25.011Z,975.6
2016-12-31T02:12:33.743Z,975.61
2016-12-31T02:13:42.441Z,975.64
2016-12-31T02:14:51.138Z,975.62
2016-12-31T02:15:59.864Z,975.64
2016-12-31T02:17:08.566Z,975.54
2016-12-31T02:18:17.266Z,975.41
2016-12-31T02:19:25.970Z,975.37
2016-12-31T02:20:34.672Z,975.45
2016-12-31T02:21:43.372Z,975.46
2016-12-31T02:22:52.070Z,975.35
2016-12-31T02:24:00.802Z,975.36
2016-12-31T02:25:09.502Z,975.36
2016-12-31T02:26:18.211Z,975.4
2016-12-31T02:27:26.909Z,975.38
2016-12-31T02:28:35.615Z,975.34
2016-12-31T02:29:44.315Z,975.38
2016-12-31T02:30:53.019Z,975.4
2016-12-31T02:32:01.720Z,975.37
2016-12-31T02:33:10.426Z,975.33
2016-12-31T02:34:19.125Z,975.3
2016-12-31T02:35:27.827Z,975.27
2016-12-31T02:36:36.527Z,975.36
2016-12-31T02:37:45.224Z,975.33
2016-12-31T02:38:53.929Z,975.28
2016-12-31T02:40:02.639Z,975.24
2016-12-31T02:41:11.344Z,975.19
2016-12-31T02:42:20.042Z,975.19
2016-12-31T02:43:28.742Z,975.25
2016-12-31T02:44:37.469Z,975.21
2016-12-31T02:45:46.170Z,975.13
2016-12-31T02:46:54.872Z,975.16
2016-12-31T02:48:03.574Z,975.2
2016-12-31T02:49:12.273Z,975.2
2016-12-31T02:50:20.972Z,975.16
2016-12-31T02:51:29.672Z,975.18
2016-12-31T02:52:38.376Z,975.09
2016-12-31T02:53:47.079Z,975.13
2016-12-31T02:54:55.778Z,975.16
2016-12-31T02:56:04.477Z,975.09
2016-12-31T02:57:13.181Z,975.05
2016-12-31T02:58:21.879Z,974.95
2016-12-31T02:59:30.581Z,974.97
2016-12-31T03:00:39.287Z,974.95
2016-12-31T03:01:48.019Z,974.97
2016-12-31T03:02:56.726Z,974.98
2016-12-31T03:04:05.526Z,974.97
2016-12-31T03:05:14.226Z,974.94
2016-12-31T03:06:22.924Z,974.98
2016-12-31T03:07:31.655Z,974.97
2016-12-31T03:08:40.356Z,974.98
2016-12-31T03:09:49.059Z,974.96
2016-12-31T03:10:57.762Z,974.98
2016-12-31T03:12:06.464Z,974.92
2016-12-31T03:13:15.165Z,974.91
2016-12-31T03:14:23.861Z,974.89
2016-12-31T03:15:32.560Z,974.92
2016-12-31T03:16:41.260Z,974.87
2016-12-31T03:17:49.963Z,974.81
2016-12-31T03:18:58.662Z,974.79
2016-12-31T03:20:07.366Z,974.79
2016-12-31T03:21:16.065Z,974.78
2016-12-31T03:22:24.771Z,974.73
2016-12-31T03:23:33.469Z,974.77
2016-12-31T03:24:42.174Z,974.75
2016-12-31T03:25:50.870Z,974.75
2016-12-31T03:26:59.570Z,974.81
2016-12-31T03:28:08.273Z,974.79
2016-12-31T03:29:16.974Z,974.8
2016-12-31T03:30:25.682Z,974.81
2016-12-31T03:31:34.383Z,974.81
2016-12-31T03:32:43.086Z,974.82
2016-12-31T03:33:51.787Z,974.79
2016-12-31T03:35:00.488Z,974.78
2016-12-31T03:36:09.189Z,974.68
2016-12-31T03:37:17.891Z,974.68
2016-12-31T03:38:26.590Z,974.68
2016-12-31T03:39:35.292Z,974.74
2016-12-31T03:40:43.994Z,974.73
2016-12-31T03:41:52.694Z,974.74
2016-12-31T03:43:01.420Z,974.7
2016-12-31T03:44:10.126Z,974.72
2016-12-31T03:45:18.827Z,974.69
2016-12-31T03:46:27.527Z,974.65
2016-12-31T03:47:36.238Z,974.69
2016-12-31T03:48:44.938Z,974.6
2016-12-31T03:49:53.638Z,974.56
2016-12-31T03:51:02.347Z,974.56
2016-12-31T03:52:11.055Z,974.58
2016-12-31T03:53:19.763Z,974.64
2016-12-31T03:54:28.460Z,974.63
2016-12-31T03:55:37.162Z,974.59
2016-12-31T03:56:45.861Z,974.7
2016-12-31T03:57:54.567Z,974.72
2016-12-31T03:59:03.270Z,974.72
2016-12-31T04:00:11.981Z,974.72
2016-12-31T04:01:20.681Z,974.71
2016-12-31T04:02:29.379Z,974.73
2016-12-31T04:03:38.076Z,974.76
2016-12-31T04:04:46.808Z,974.78
2016-12-31T04:05:55.508Z,974.76
2016-12-31T04:07:04.207Z,974.81
2016-12-31T04:08:12.909Z,974.8
2016-12-31T04:09:21.610Z,974.77
2016-12-31T04:10:30.308Z,974.85
2016-12-31T04:11:39.006Z,974.89
2016-12-31T04:12:47.709Z,974.84
2016-12-31T04:13:56.411Z,974.84
2016-12-31T04:15:05.109Z,974.82
2016-12-31T04:16:13.809Z,974.88
2016-12-31T04:17:22.507Z,974.88
2016-12-31T04:18:31.207Z,974.8
2016-12-31T04:19:39.911Z,974.83
2016-12-31T04:20:48.614Z,974.76
2016-12-31T04:21:57.345Z,974.74
2016-12-31T04:23:06.047Z,974.71
2016-12-31T04:24:14.747Z,974.68
2016-12-31T04:25:23.448Z,974.72
2016-12-31T04:26:32.148Z,974.67
2016-12-31T04:27:40.844Z,974.64
2016-12-31T04:28:49.547Z,974.59
2016-12-31T04:29:58.244Z,974.61
2016-12-31T04:31:06.949Z,974.58
2016-12-31T04:32:15.652Z,974.58
2016-12-31T04:33:24.352Z,974.57
2016-12-31T04:34:33.055Z,974.52
2016-12-31T04:35:41.758Z,974.42
2016-12-31T04:36:50.470Z,974.43
2016-12-31T04:37:59.169Z,974.44
2016-12-31T04:39:07.869Z,974.41
2016-12-31T04:40:16.572Z,974.39
2016-12-31T04:41:25.276Z,974.36
2016-12-31T04:42:33.975Z,974.36
2016-12-31T04:43:42.675Z,974.35
2016-12-31T04:44:51.380Z,974.29
2016-12-31T04:46:00.085Z,974.3
2016-12-31T04:47:08.789Z,974.32
2016-12-31T04:48:17.515Z,974.3
2016-12-31T04:49:26.212Z,974.35
2016-12-31T04:50:34.912Z,974.27
2016-12-31T04:51:43.620Z,974.28
2016-12-31T04:52:52.322Z,974.24
2016-12-31T04:54:01.026Z,974.21
2016-12-31T04:55:09.730Z,974.16
2016-12-31T04:56:18.430Z,974.16
2016-12-31T04:57:27.128Z,974.13
2016-12-31T04:58:35.830Z,974.07
2016-12-31T04:59:44.528Z,974.09
2016-12-31T05:00:53.228Z,974.07
2016-12-31T05:02:01.929Z,974.02
2016-12-31T05:03:10.632Z,974.03
2016-12-31T05:04:19.330Z,974.08
2016-12-31T05:05:28.065Z,974.09
2016-12-31T05:06:36.768Z,974.08
2016-12-31T05:07:45.465Z,974.08
2016-12-31T05:08:54.199Z,973.98
2016-12-31T05:10:02.902Z,973.93
2016-12-31T05:11:11.605Z,973.93
2016-12-31T05:12:20.306Z,973.93
2016-12-31T05:13:29.009Z,973.96
2016-12-31T05:14:37.706Z,973.94
2016-12-31T05:15:46.434Z,973.94
2016-12-31T05:16:55.134Z,973.95
2016-12-31T05:18:03.835Z,973.97
2016-12-31T05:19:12.535Z,974.04
2016-12-31T05:20:21.238Z,974.03
2016-12-31T05:21:29.937Z,974
2016-12-31T05:22:38.651Z,974.01
2016-12-31T05:23:47.355Z,973.99
2016-12-31T05:24:56.057Z,974.01
2016-12-31T05:26:04.755Z,974.02
2016-12-31T05:27:13.453Z,974.02
2016-12-31T05:28:22.152Z,974.05
2016-12-31T05:29:30.851Z,974.09
2016-12-31T05:30:39.554Z,974.11
2016-12-31T05:31:48.264Z,974.14
2016-12-31T05:32:56.963Z,974.16
2016-12-31T05:34:05.665Z,974.14
2016-12-31T05:35:14.364Z,974.17
2016-12-31T05:36:23.066Z,974.19
2016-12-31T05:37:31.769Z,974.14
2016-12-31T05:38:40.470Z,974.15
2016-12-31T05:39:49.168Z,974.14
2016-12-31T05:40:57.872Z,974.12
2016-12-31T05:42:06.575Z,974.13
2016-12-31T05:43:15.273Z,974.04
2016-12-31T05:44:23.978Z,974.04
2016-12-31T05:45:32.683Z,974.02
2016-12-31T05:46:41.384Z,974.01
2016-12-31T05:47:50.089Z,974.08
2016-12-31T05:48:58.790Z,974
2016-12-31T05:50:07.491Z,974.06
2016-12-31T05:51:16.191Z,974.11
2016-12-31T05:52:24.889Z,974.05
2016-12-31T05:53:33.603Z,974
2016-12-31T05:54:42.301Z,973.99
2016-12-31T05:55:51.001Z,973.98
2016-12-31T05:56:59.698Z,973.97
2016-12-31T05:58:08.401Z,973.95
2016-12-31T05:59:17.126Z,973.94
2016-12-31T06:00:25.833Z,974.05
2016-12-31T06:01:34.534Z,973.94
2016-12-31T06:02:43.244Z,973.91
2016-12-31T06:03:51.951Z,973.91
2016-12-31T06:05:00.652Z,973.89
2016-12-31T06:06:09.354Z,973.85
2016-12-31T06:07:18.054Z,973.88
2016-12-31T06:08:26.757Z,973.83
2016-12-31T06:09:35.460Z,973.88
2016-12-31T06:10:44.179Z,973.89
2016-12-31T06:11:52.878Z,973.88
2016-12-31T06:13:01.580Z,973.89
2016-12-31T06:14:10.281Z,973.85
2016-12-31T06:15:18.982Z,973.86
2016-12-31T06:16:27.678Z,973.87
2016-12-31T06:17:36.379Z,973.86
2016-12-31T06:18:45.082Z,973.82
2016-12-31T06:19:53.780Z,973.83
2016-12-31T06:21:02.500Z,973.79
2016-12-31T06:22:11.203Z,973.8
2016-12-31T06:23:19.906Z,973.83
2016-12-31T06:24:28.604Z,973.83
2016-12-31T06:25:37.306Z,973.79
2016-12-31T06:26:46.005Z,973.74
2016-12-31T06:27:54.713Z,973.73
2016-12-31T06:29:03.411Z,973.73
2016-12-31T06:30:12.111Z,973.69
2016-12-31T06:31:20.811Z,973.69
2016-12-31T06:32:29.510Z,973.69
2016-12-31T06:33:38.212Z,973.68
2016-12-31T06:34:46.940Z,973.69
2016-12-31T06:35:55.641Z,973.73
2016-12-31T06:37:04.340Z,973.72
2016-12-31T06:38:13.041Z,973.76
2016-12-31T06:39:21.743Z,973.76
2016-12-31T06:40:30.448Z,973.8
2016-12-31T06:41:39.179Z,973.81
2016-12-31T06:42:47.879Z,973.79
2016-12-31T06:43:56.580Z,973.8
2016-12-31T06:45:05.680Z,973.77
2016-12-31T06:46:14.382Z,973.76
2016-12-31T06:47:23.083Z,973.79
2016-12-31T06:48:31.782Z,973.8
2016-12-31T06:49:40.482Z,973.74
2016-12-31T06:50:49.582Z,973.73
2016-12-31T06:51:58.282Z,973.78
2016-12-31T06:53:07.030Z,973.79
2016-12-31T06:54:15.730Z,973.79
2016-12-31T06:55:24.449Z,973.76
2016-12-31T06:56:33.180Z,973.8
2016-12-31T06:57:41.879Z,973.74
2016-12-31T06:58:50.579Z,973.7
2016-12-31T06:59:59.282Z,973.65
2016-12-31T07:01:07.990Z,973.74
2016-12-31T07:02:16.692Z,973.67
2016-12-31T07:03:25.395Z,973.65
2016-12-31T07:04:34.092Z,973.71
2016-12-31T07:05:42.794Z,973.72
2016-12-31T07:06:51.496Z,973.72
2016-12-31T07:08:00.195Z,973.7
2016-12-31T07:09:08.892Z,973.7
2016-12-31T07:10:17.591Z,973.73
2016-12-31T07:11:26.292Z,973.73
2016-12-31T07:12:34.996Z,973.64
2016-12-31T07:13:43.694Z,973.63
2016-12-31T07:14:52.392Z,973.65
2016-12-31T07:16:01.089Z,973.65
2016-12-31T07:17:09.792Z,973.53
2016-12-31T07:18:18.497Z,973.58
2016-12-31T07:19:27.193Z,973.66
2016-12-31T07:20:35.892Z,973.63
2016-12-31T07:21:44.590Z,973.67
2016-12-31T07:22:53.287Z,973.73
2016-12-31T07:24:01.987Z,973.83
2016-12-31T07:25:10.688Z,973.82
2016-12-31T07:26:19.390Z,973.86
2016-12-31T07:27:28.086Z,973.81
2016-12-31T07:28:36.787Z,973.8
2016-12-31T07:29:45.488Z,973.79
2016-12-31T07:30:54.190Z,973.84
2016-12-31T07:32:02.920Z,973.84
2016-12-31T07:33:11.619Z,973.9
2016-12-31T07:34:20.326Z,973.95
2016-12-31T07:35:29.033Z,974.07
2016-12-31T07:36:37.737Z,974.01
2016-12-31T07:37:46.436Z,973.97
2016-12-31T07:38:55.141Z,973.9
2016-12-31T07:40:03.841Z,973.92
2016-12-31T07:41:12.548Z,973.9
2016-12-31T07:42:21.276Z,973.95
2016-12-31T07:43:29.974Z,974.04
2016-12-31T07:44:38.675Z,974.02
2016-12-31T07:45:47.377Z,973.98
2016-12-31T07:46:56.080Z,973.94
2016-12-31T07:48:04.783Z,973.93
2016-12-31T07:49:13.485Z,973.91
2016-12-31T07:50:22.183Z,973.9
2016-12-31T07:51:30.883Z,973.91
2016-12-31T07:52:39.588Z,973.94
2016-12-31T07:53:48.288Z,973.95
2016-12-31T07:54:56.988Z,973.95
2016-12-31T07:56:05.692Z,974.05
2016-12-31T07:57:14.793Z,974.09
2016-12-31T07:58:23.505Z,974.14
2016-12-31T07:59:32.206Z,974.16
2016-12-31T08:00:40.906Z,974.17
2016-12-31T08:01:49.611Z,974.21
2016-12-31T08:02:58.311Z,974.17
2016-12-31T08:04:07.016Z,974.26
2016-12-31T08:05:15.739Z,974.19
2016-12-31T08:06:24.458Z,974.1
2016-12-31T08:07:33.159Z,974.13
2016-12-31T08:08:41.857Z,974.11
2016-12-31T08:09:50.555Z,974.1
2016-12-31T08:10:59.250Z,974.01
2016-12-31T08:12:07.949Z,973.94
2016-12-31T08:13:16.646Z,973.93
2016-12-31T08:14:25.345Z,973.87
2016-12-31T08:15:34.044Z,973.85
2016-12-31T08:16:42.745Z,973.76
2016-12-31T08:17:51.444Z,973.73
2016-12-31T08:19:00.148Z,973.77
2016-12-31T08:20:08.878Z,973.78
2016-12-31T08:21:17.576Z,973.74
2016-12-31T08:22:26.273Z,973.71
2016-12-31T08:23:34.977Z,973.74
2016-12-31T08:24:43.673Z,973.79
2016-12-31T08:25:52.372Z,973.85
2016-12-31T08:27:01.070Z,973.9
2016-12-31T08:28:09.780Z,973.86
2016-12-31T08:29:18.475Z,973.94
2016-12-31T08:30:27.175Z,973.99
2016-12-31T08:31:35.877Z,974.1
2016-12-31T08:32:44.572Z,974.19
2016-12-31T08:33:53.273Z,974.12
2016-12-31T08:35:01.981Z,974.04
2016-12-31T08:36:10.678Z,974.01
2016-12-31T08:37:19.375Z,974
2016-12-31T08:38:28.100Z,974.01
2016-12-31T08:39:36.801Z,973.96
2016-12-31T08:40:45.501Z,974
2016-12-31T08:41:54.197Z,973.89
2016-12-31T08:43:02.896Z,973.98
2016-12-31T08:44:11.594Z,973.93
2016-12-31T08:45:20.296Z,973.87
2016-12-31T08:46:28.995Z,973.89
2016-12-31T08:47:37.691Z,973.91
2016-12-31T08:48:46.387Z,973.82
2016-12-31T08:49:55.087Z,973.86
2016-12-31T08:51:03.787Z,973.82
2016-12-31T08:52:12.486Z,973.75
2016-12-31T08:53:21.183Z,973.78
2016-12-31T08:54:29.890Z,973.78
2016-12-31T08:55:38.592Z,973.71
2016-12-31T08:56:47.316Z,973.69
2016-12-31T08:57:56.015Z,973.69
2016-12-31T08:59:04.713Z,973.71
2016-12-31T09:00:13.417Z,973.69
2016-12-31T09:01:22.124Z,973.69
2016-12-31T09:02:30.822Z,973.67
2016-12-31T09:03:39.515Z,973.61
2016-12-31T09:04:48.243Z,973.64
2016-12-31T09:05:56.941Z,973.64
2016-12-31T09:07:05.639Z,973.63
2016-12-31T09:08:14.336Z,973.61
2016-12-31T09:09:23.033Z,973.61
2016-12-31T09:10:31.730Z,973.6
2016-12-31T09:11:40.429Z,973.58
2016-12-31T09:12:49.130Z,973.63
2016-12-31T09:13:57.835Z,973.61
2016-12-31T09:15:06.538Z,973.52
2016-12-31T09:16:15.233Z,973.54
2016-12-31T09:17:23.935Z,973.48
2016-12-31T09:18:32.632Z,973.4
2016-12-31T09:19:41.333Z,973.39
2016-12-31T09:20:50.031Z,973.46
2016-12-31T09:21:58.731Z,973.56
2016-12-31T09:23:07.431Z,973.58
2016-12-31T09:24:16.130Z,973.59
2016-12-31T09:25:24.830Z,973.56
2016-12-31T09:26:33.528Z,973.56
2016-12-31T09:27:42.258Z,973.62
2016-12-31T09:28:51.013Z,973.61
2016-12-31T09:29:59.711Z,973.68
2016-12-31T09:31:08.813Z,973.73
2016-12-31T09:32:17.520Z,973.74
2016-12-31T09:33:26.220Z,973.78
2016-12-31T09:34:34.922Z,973.81
2016-12-31T09:35:43.629Z,973.82
2016-12-31T09:36:52.333Z,973.88
2016-12-31T09:38:01.045Z,973.82
2016-12-31T09:39:09.743Z,973.85
2016-12-31T09:40:18.452Z,973.85
2016-12-31T09:41:27.151Z,973.9
2016-12-31T09:42:35.853Z,973.86
2016-12-31T09:43:44.551Z,973.9
2016-12-31T09:44:53.247Z,973.86
2016-12-31T09:46:01.945Z,973.91
2016-12-31T09:47:10.673Z,973.87
2016-12-31T09:48:19.374Z,973.93
2016-12-31T09:49:28.073Z,973.94
2016-12-31T09:50:36.770Z,973.94
2016-12-31T09:51:45.473Z,974.01
2016-12-31T09:52:54.173Z,973.98
2016-12-31T09:54:02.880Z,973.95
2016-12-31T09:55:11.583Z,973.96
2016-12-31T09:56:20.286Z,973.98
2016-12-31T09:57:28.988Z,974.02
2016-12-31T09:58:37.691Z,974.09
2016-12-31T09:59:46.394Z,974.04
2016-12-31T10:00:55.091Z,974.06
2016-12-31T10:02:03.793Z,974.02
2016-12-31T10:03:12.490Z,974
2016-12-31T10:04:21.192Z,973.95
2016-12-31T10:05:29.900Z,974.02
2016-12-31T10:06:38.601Z,973.98
2016-12-31T10:07:47.325Z,974.03
2016-12-31T10:08:56.028Z,973.98
2016-12-31T10:10:04.729Z,973.94
2016-12-31T10:11:13.430Z,973.89
2016-12-31T10:12:22.128Z,973.92
2016-12-31T10:13:30.874Z,973.86
2016-12-31T10:14:39.573Z,973.81
2016-12-31T10:15:48.272Z,973.75
2016-12-31T10:16:56.971Z,973.76
2016-12-31T10:18:05.670Z,973.71
2016-12-31T10:19:14.372Z,973.77
2016-12-31T10:20:23.074Z,973.73
2016-12-31T10:21:31.773Z,973.73
2016-12-31T10:22:40.474Z,973.76
2016-12-31T10:23:49.172Z,973.78
2016-12-31T10:24:57.872Z,973.75
2016-12-31T10:26:06.572Z,973.75
2016-12-31T10:27:15.271Z,973.67
2016-12-31T10:28:23.971Z,973.71
2016-12-31T10:29:32.671Z,973.74
2016-12-31T10:30:41.373Z,973.7
2016-12-31T10:31:50.095Z,973.77
2016-12-31T10:32:58.800Z,973.8
2016-12-31T10:34:07.498Z,973.82
2016-12-31T10:35:16.207Z,973.83
2016-12-31T10:36:24.915Z,973.84
2016-12-31T10:37:33.614Z,973.87
2016-12-31T10:38:42.344Z,973.85
2016-12-31T10:39:51.042Z,973.83
2016-12-31T10:40:59.741Z,973.8
2016-12-31T10:42:08.444Z,973.81
2016-12-31T10:43:17.148Z,973.84
2016-12-31T10:44:25.845Z,973.8
2016-12-31T10:45:34.546Z,973.84
2016-12-31T10:46:43.245Z,973.77
2016-12-31T10:47:51.949Z,973.77
2016-12-31T10:49:00.649Z,973.84
2016-12-31T10:50:09.352Z,973.8
2016-12-31T10:51:18.050Z,973.79
2016-12-31T10:52:26.751Z,973.81
2016-12-31T10:53:35.449Z,973.82
2016-12-31T10:54:44.152Z,973.79
2016-12-31T10:55:52.855Z,973.91
2016-12-31T10:57:01.558Z,973.85
2016-12-31T10:58:10.262Z,973.82
2016-12-31T10:59:18.963Z,973.84
2016-12-31T11:00:27.670Z,973.87
2016-12-31T11:01:36.370Z,973.84
2016-12-31T11:02:45.069Z,973.81
2016-12-31T11:03:53.771Z,973.84
2016-12-31T11:05:02.472Z,973.79
2016-12-31T11:06:11.570Z,973.8
2016-12-31T11:07:20.269Z,973.83
2016-12-31T11:08:28.973Z,973.86
2016-12-31T11:09:37.671Z,973.87
2016-12-31T11:10:46.376Z,973.89
2016-12-31T11:11:55.078Z,973.87
2016-12-31T11:13:03.776Z,973.8
2016-12-31T11:14:12.482Z,973.75
2016-12-31T11:15:21.177Z,973.7
2016-12-31T11:16:29.878Z,973.74
2016-12-31T11:17:38.581Z,973.77
2016-12-31T11:18:47.284Z,973.71
2016-12-31T11:19:55.989Z,973.76
2016-12-31T11:21:04.690Z,973.74
2016-12-31T11:22:13.392Z,973.72
2016-12-31T11:23:22.096Z,973.73
2016-12-31T11:24:30.802Z,973.74
2016-12-31T11:25:39.501Z,973.69
2016-12-31T11:26:48.204Z,973.65
2016-12-31T11:27:56.902Z,973.66
2016-12-31T11:29:05.615Z,973.69
2016-12-31T11:30:14.317Z,973.71
2016-12-31T11:31:23.015Z,973.72
2016-12-31T11:32:31.713Z,973.67
2016-12-31T11:33:40.412Z,973.65
2016-12-31T11:34:49.110Z,973.7
2016-12-31T11:35:57.810Z,973.75
2016-12-31T11:37:06.510Z,973.71
2016-12-31T11:38:15.211Z,973.66
2016-12-31T11:39:23.932Z,973.63
2016-12-31T11:40:32.633Z,973.55
2016-12-31T11:41:41.335Z,973.53
2016-12-31T11:42:50.035Z,973.59
2016-12-31T11:43:58.737Z,973.55
2016-12-31T11:45:07.538Z,973.52
2016-12-31T11:46:16.238Z,973.49
2016-12-31T11:47:24.942Z,973.49
2016-12-31T11:48:33.648Z,973.44
2016-12-31T11:49:42.350Z,973.45
2016-12-31T11:50:51.051Z,973.42
2016-12-31T11:52:00.151Z,973.41
2016-12-31T11:53:08.853Z,973.4
2016-12-31T11:54:17.554Z,973.45
2016-12-31T11:55:26.251Z,973.43
2016-12-31T11:56:35.006Z,973.46
2016-12-31T11:57:43.707Z,973.48
2016-12-31T11:58:52.412Z,973.51
2016-12-31T12:00:01.116Z,973.47
2016-12-31T12:01:09.816Z,973.41
2016-12-31T12:02:18.513Z,973.41
2016-12-31T12:03:27.209Z,973.42
2016-12-31T12:04:35.906Z,973.44
2016-12-31T12:05:44.609Z,973.47
2016-12-31T12:06:53.310Z,973.43
2016-12-31T12:08:02.011Z,973.39
2016-12-31T12:09:10.715Z,973.36
2016-12-31T12:10:19.416Z,973.27
2016-12-31T12:11:28.119Z,973.26
2016-12-31T12:12:36.819Z,973.23
2016-12-31T12:13:45.528Z,973.24
2016-12-31T12:14:54.231Z,973.27
2016-12-31T12:16:02.933Z,973.22
2016-12-31T12:17:11.637Z,973.24
2016-12-31T12:18:20.335Z,973.23
2016-12-31T12:19:29.034Z,973.17
2016-12-31T12:20:37.733Z,973.26
2016-12-31T12:21:46.432Z,973.25
2016-12-31T12:22:55.130Z,973.27
2016-12-31T12:24:03.835Z,973.3
2016-12-31T12:25:12.534Z,973.29
2016-12-31T12:26:21.233Z,973.24
2016-12-31T12:27:29.930Z,973.24
2016-12-31T12:28:38.640Z,973.22
2016-12-31T12:29:47.338Z,973.21
2016-12-31T12:30:56.043Z,973.14
2016-12-31T12:32:04.743Z,973.14
2016-12-31T12:33:13.441Z,973.24
2016-12-31T12:34:22.141Z,973.26
2016-12-31T12:35:30.839Z,973.28
2016-12-31T12:36:39.541Z,973.24
2016-12-31T12:37:48.240Z,973.25
2016-12-31T12:38:56.939Z,973.22
2016-12-31T12:40:05.639Z,973.25
2016-12-31T12:41:14.339Z,973.32
2016-12-31T12:42:23.041Z,973.3
2016-12-31T12:43:31.746Z,973.29
2016-12-31T12:44:40.449Z,973.31
2016-12-31T12:45:49.154Z,973.26
2016-12-31T12:46:57.857Z,973.23
2016-12-31T12:48:06.952Z,973.24
2016-12-31T12:49:15.649Z,973.17
2016-12-31T12:50:24.351Z,973.17
2016-12-31T12:51:33.051Z,973.16
2016-12-31T12:52:41.758Z,973.2
2016-12-31T12:53:50.458Z,973.16
2016-12-31T12:54:59.156Z,973.2
2016-12-31T12:56:07.860Z,973.17
2016-12-31T12:57:16.569Z,973.11
2016-12-31T12:58:25.269Z,973.13
2016-12-31T12:59:33.969Z,973.09
2016-12-31T13:00:42.670Z,973.05
2016-12-31T13:01:51.368Z,973.05
2016-12-31T13:03:00.066Z,973.07
2016-12-31T13:04:08.770Z,973.05
2016-12-31T13:05:17.468Z,973.03
2016-12-31T13:06:26.166Z,973
2016-12-31T13:07:34.866Z,973.03
2016-12-31T13:08:43.576Z,973
2016-12-31T13:09:52.279Z,973.01
2016-12-31T13:11:00.977Z,973.01
2016-12-31T13:12:09.676Z,972.97
2016-12-31T13:13:18.380Z,973
2016-12-31T13:14:27.081Z,972.96
2016-12-31T13:15:35.787Z,973.04
2016-12-31T13:16:44.486Z,973.06
2016-12-31T13:17:53.188Z,972.98
2016-12-31T13:19:01.889Z,973.06
2016-12-31T13:20:10.606Z,973.16
2016-12-31T13:21:19.304Z,973.13
2016-12-31T13:22:28.006Z,973.06
2016-12-31T13:23:36.711Z,973.02
2016-12-31T13:24:45.410Z,972.99
2016-12-31T13:25:54.137Z,972.97
2016-12-31T13:27:02.838Z,973.03
2016-12-31T13:28:11.538Z,973.06
2016-12-31T13:29:20.234Z,972.96
2016-12-31T13:30:28.933Z,972.92
2016-12-31T13:31:37.638Z,972.93
2016-12-31T13:32:46.335Z,972.95
2016-12-31T13:33:55.036Z,972.95
2016-12-31T13:35:03.733Z,972.99
2016-12-31T13:36:12.463Z,973
2016-12-31T13:37:21.163Z,973
2016-12-31T13:38:29.872Z,972.98
2016-12-31T13:39:38.574Z,972.97
2016-12-31T13:40:47.301Z,972.98
2016-12-31T13:41:56.000Z,972.94
2016-12-31T13:43:04.704Z,972.99
2016-12-31T13:44:13.408Z,973.03
2016-12-31T13:45:22.457Z,973.02
2016-12-31T13:46:31.157Z,973.04
2016-12-31T13:47:39.855Z,973.1
2016-12-31T13:48:48.559Z,973.06
2016-12-31T13:49:57.256Z,973.07
2016-12-31T13:51:05.955Z,973.13
2016-12-31T13:52:14.659Z,973.07
2016-12-31T13:53:23.359Z,973.13
2016-12-31T13:54:32.058Z,973.17
2016-12-31T13:55:40.759Z,973.15
2016-12-31T13:56:49.527Z,973.18
2016-12-31T13:57:58.227Z,973.16
2016-12-31T13:59:06.928Z,973.22
2016-12-31T14:00:15.627Z,973.21
2016-12-31T14:01:24.326Z,973.2
2016-12-31T14:02:33.030Z,973.21
2016-12-31T14:03:41.727Z,973.2
2016-12-31T14:04:50.433Z,973.21
2016-12-31T14:05:59.134Z,973.16
2016-12-31T14:07:07.837Z,973.13
2016-12-31T14:08:16.545Z,973.13
2016-12-31T14:09:25.242Z,973.11
2016-12-31T14:10:33.947Z,973.15
2016-12-31T14:11:42.644Z,973.21
2016-12-31T14:12:51.346Z,973.23
2016-12-31T14:14:00.044Z,973.24
2016-12-31T14:15:08.742Z,973.27
2016-12-31T14:16:17.444Z,973.28
2016-12-31T14:17:26.144Z,973.29
2016-12-31T14:18:34.848Z,973.29
2016-12-31T14:19:43.547Z,973.28
2016-12-31T14:20:52.246Z,973.26